• Join FlightAware (Why Join?)
  • Login
  • US Flag 
02:10AM EST


 

Airport Tracker/Info


-or-


 

Live Flight TrackerFlight Track Log ✈ SWA378 ✈ 15-May-2013 ✈ KLAX - KATL

Flight Track Log - Related Links

Times and Time Zones

All times are in EDT time to prevent confusion due to time zone crossing. See the SWA378 flight status page for this flight to view local times or setup timezone preferences in your user account.

Time Position Orientation Groundspeed Altitude Reporting Facility
EDT Latitude Longitude Course Direction KTS MPH feet Rate Location/Type
01:20PM 33.9044 -118.5325 233° Southwest 233 268 3,400  Level Los Angeles Center
01:21PM 33.8306 -118.5442 187° South 279 321 5,700 2,280 Climbing Los Angeles Center
01:22PM 33.7519 -118.5311 172° South 288 331 8,200 2,220 Climbing Los Angeles Center
01:23PM 33.6947 -118.4681 137° Southeast 308 354 10,400 2,460 Climbing Los Angeles Center
01:24PM 33.6333 -118.2261 90° East  Level FlightAware Approximate
01:24PM 33.6475 -118.3525 116° Southeast 328 377 13,400  Level Los Angeles Center
01:25PM 33.6439 -118.2364 92° East 356 410 15,100 1,980 Climbing Los Angeles Center
01:26PM 33.6442 -118.1072 90° East 386 444 17,600 2,280 Climbing Los Angeles Center
01:27PM 33.6442 -117.9708 90° East 405 466 19,900 2,220 Climbing Los Angeles Center
01:28PM 33.6442 -117.8292 90° East 420 483 22,200 2,400 Climbing Los Angeles Center
01:29PM 33.6444 -117.6536 90° East 433 498 24,900 2,100 Climbing Los Angeles Center
01:30PM 33.6431 -117.5042 91° East 442 509 26,600 1,500 Climbing Los Angeles Center
01:31PM 33.6408 -117.3489 91° East 459 528 28,100 1,440 Climbing Los Angeles Center
01:32PM 33.6400 -117.1894 90° East 473 544 29,600 1,440 Climbing Los Angeles Center
01:33PM 33.6389 -117.0264 90° East 483 556 31,100 1,680 Climbing Los Angeles Center
01:34PM 33.6589 -116.8461 82° East 481 554 33,200 1,680 Climbing Los Angeles Center
01:35PM 33.6878 -116.6903 77° East 477 549 34,600 1,200 Climbing Los Angeles Center
01:36PM 33.7147 -116.5336 78° East 478 550 35,800 1,080 Climbing Los Angeles Center
01:37PM 33.7425 -116.3797 78° East 472 543 36,900 540 Climbing Los Angeles Center
01:38PM 33.7700 -116.2236 78° East 475 547 37,000  Climbing Los Angeles Center
01:39PM 33.7964 -116.0661 79° East 480 552 37,000  Level Los Angeles Center
01:40PM 33.8292 -115.8808 78° East 474 545 37,000  Level Los Angeles Center
01:41PM 33.8558 -115.7269 78° East 472 543 37,000  Level Los Angeles Center
01:42PM 33.8814 -115.5714 79° East 474 545 37,000  Level Los Angeles Center
01:43PM 33.9069 -115.4169 79° East 471 542 37,000  Level Los Angeles Center
01:44PM 33.9333 -115.2633 78° East 470 541 37,000  Level Los Angeles Center
01:45PM 33.9597 -115.1094 78° East 468 539 37,000  Level Los Angeles Center
01:46PM 33.9897 -114.9239 79° East 470 541 37,000  Level Los Angeles Center
01:48PM 34.0169 -114.7689 78° East 473 544 37,000  Level Los Angeles Center
01:49PM 34.0417 -114.6139 79° East 471 542 37,000  Level Los Angeles Center
01:50PM 34.0656 -114.4594 79° East 469 540 37,000  Level Los Angeles Center
01:51PM 34.0917 -114.3064 78° East 466 536 37,000  Level Los Angeles Center
01:52PM 34.1186 -114.1386 79° East 470 541 37,000  Level Los Angeles Center
01:53PM 34.1411 -113.9961 79° East 471 542 37,000  Level Los Angeles Center
01:54PM 34.1681 -113.8081 80° East 472 543 37,000  Level Los Angeles Center
01:55PM 34.1975 -113.6331 78° East 469 540 37,000  Level Albuquerque Center
01:56PM 34.2219 -113.4697 80° East 473 544 37,000  Level Albuquerque Center
01:57PM 34.2456 -113.3139 80° East 472 543 37,000  Level Albuquerque Center
01:58PM 34.2678 -113.1581 80° East 472 543 37,000  Level Albuquerque Center
01:59PM 34.2914 -113.0033 79° East 471 542 37,000  Level Albuquerque Center
02:00PM 34.3142 -112.8481 80° East 468 539 37,000  Level Albuquerque Center
02:01PM 34.3372 -112.6919 80° East 470 541 37,000  Level Albuquerque Center
02:02PM 34.3656 -112.5031 80° East 474 545 37,000  Level Albuquerque Center
02:03PM 34.3881 -112.3447 80° East 476 548 37,000  Level Albuquerque Center
02:04PM 34.4092 -112.1861 81° East 476 548 37,000  Level Albuquerque Center
02:05PM 34.4311 -112.0281 80° East 474 545 37,000  Level Albuquerque Center
02:06PM 34.4536 -111.8700 80° East 474 545 37,000  Level Albuquerque Center
02:07PM 34.4761 -111.7125 80° East 472 543 37,000  Level Albuquerque Center
02:08PM 34.4972 -111.5547 81° East 472 543 37,000  Level Albuquerque Center
02:09PM 34.5178 -111.3956 81° East 475 547 37,000  Level Albuquerque Center
02:10PM 34.5433 -111.2075 81° East 472 543 37,000  Level Albuquerque Center
02:11PM 34.5625 -111.0492 82° East 473 544 37,000  Level Albuquerque Center
02:12PM 34.5806 -110.8911 82° East 473 544 37,000  Level Albuquerque Center
02:13PM 34.6006 -110.7167 82° East 469 540 37,000  Level Albuquerque Center
02:14PM 34.6189 -110.5686 81° East 466 536 37,000  Level Albuquerque Center
02:16PM 34.6342 -110.4178 83° East 468 539 37,000  Level Albuquerque Center
02:17PM 34.6547 -110.2450 82° East 466 536 37,000  Level Albuquerque Center
02:18PM 34.6703 -110.0978 83° East 462 532 37,000  Level Albuquerque Center
02:19PM 34.6878 -109.9233 83° East 466 536 37,000  Level Albuquerque Center
02:20PM 34.7036 -109.7747 83° East 465 535 37,000  Level Albuquerque Center
02:21PM 34.7211 -109.6006 83° East 466 536 37,000  Level Albuquerque Center
02:22PM 34.7372 -109.4519 82° East 465 535 37,000  Level Albuquerque Center
02:23PM 34.7542 -109.2797 83° East 462 532 37,000  Level Albuquerque Center
02:24PM 34.7683 -109.1311 83° East 463 533 37,000  Level Albuquerque Center
02:25PM 34.7836 -108.9847 83° East 459 528 37,000  Level Albuquerque Center
02:26PM 34.8008 -108.8142 83° East 457 526 37,000  Level Albuquerque Center
02:27PM 34.8144 -108.6672 84° East 458 527 37,000  Level Albuquerque Center
02:28PM 34.8311 -108.4978 83° East 455 524 37,000  Level Albuquerque Center
02:29PM 34.8442 -108.3500 84° East 457 526 37,000  Level Albuquerque Center
02:30PM 34.8611 -108.1794 83° East 457 526 37,000  Level Albuquerque Center
02:31PM 34.8744 -108.0339 84° East 455 524 37,000  Level Albuquerque Center
02:32PM 34.8897 -107.8642 84° East 453 521 37,000  Level Albuquerque Center
02:33PM 34.9003 -107.7361 84° East 449 517 37,000  Level Albuquerque Center
02:34PM 34.9128 -107.5847 84° East 450 518 37,000  Level Albuquerque Center
02:35PM 34.9258 -107.4347 84° East 448 516 37,000  Level Albuquerque Center
02:37PM 34.9369 -107.2084 84° East  Level FlightAware Approximate
02:37PM 34.9556 -107.0950 84° East 449 517 37,000  Level Albuquerque Center
02:38PM 34.9667 -106.9503 85° East 449 517 37,000  Level Albuquerque Center
02:39PM 34.9792 -106.7836 85° East 444 511 37,000  Level Albuquerque Center
02:40PM 34.9894 -106.6394 85° East 444 511 37,000  Level Albuquerque Center
02:41PM 35.0017 -106.4800 85° East 453 521 37,000  Level Albuquerque Center
02:42PM 35.0125 -106.3322 85° East 444 511 37,000  Level Albuquerque Center
02:43PM 35.0244 -106.1911 84° East 425 489 37,000  Level Albuquerque Center
02:44PM 35.0336 -106.0469 86° East 426 490 37,000  Level Albuquerque Center
02:45PM 35.0475 -105.8819 84° East 422 486 37,000  Level Albuquerque Center
02:46PM 35.0719 -105.7406 78° East 422 486 37,000  Level Albuquerque Center
02:47PM 35.0950 -105.6000 79° East 419 482 37,000  Level Albuquerque Center
02:48PM 35.1192 -105.4586 78° East 420 483 37,000  Level Albuquerque Center
02:49PM 35.1397 -105.3153 80° East 425 489 37,000  Level Albuquerque Center
02:50PM 35.1489 -105.1681 86° East 428 493 37,000 120 Level Albuquerque Center
02:51PM 35.1567 -105.0194 86° East 433 498 37,300 720 Climbing Albuquerque Center
02:52PM 35.1642 -104.8714 86° East 434 499 38,500 780 Climbing Albuquerque Center
02:54PM 35.1731 -104.7247 86° East 430 495 39,000 240 Climbing Albuquerque Center
02:55PM 35.1831 -104.5578 86° East 441 507 39,000  Level Albuquerque Center
02:56PM 35.1925 -104.4064 86° East 447 514 39,000  Level Albuquerque Center
02:57PM 35.1989 -104.2536 87° East 449 517 39,000  Level Albuquerque Center
02:58PM 35.2061 -104.1014 87° East 450 518 39,000  Level Albuquerque Center
02:59PM 35.2158 -103.9492 85° East 450 518 39,000  Level Albuquerque Center
03:00PM 35.2219 -103.7903 87° East 450 518 39,000  Level Albuquerque Center
03:01PM 35.2306 -103.6133 87° East 445 512 39,000  Level Albuquerque Center
03:02PM 35.2375 -103.4617 87° East 444 511 39,000  Level Albuquerque Center
03:03PM 35.2444 -103.3114 87° East 441 507 39,000  Level Albuquerque Center
03:04PM 35.2508 -103.1594 87° East 443 510 39,000  Level Albuquerque Center
03:05PM 35.2567 -103.0075 87° East 444 511 39,000  Level Albuquerque Center
03:06PM 35.2628 -102.8650 87° East 446 513 39,000  Level Albuquerque Center
03:07PM 35.2678 -102.7108 88° East 451 519 39,000  Level Albuquerque Center
03:08PM 35.2756 -102.5281 87° East 450 518 39,000  Level Albuquerque Center
03:09PM 35.2808 -102.3742 88° East 453 521 39,000  Level Albuquerque Center
03:10PM 35.2861 -102.2200 88° East 454 522 39,000  Level Albuquerque Center
03:11PM 35.2917 -102.0650 87° East 456 525 39,000  Level Albuquerque Center
03:12PM 35.2981 -101.8950 87° East 459 528 39,000  Level Albuquerque Center
03:13PM 35.3044 -101.7378 87° East 459 528 39,000  Level Albuquerque Center
03:14PM 35.3089 -101.5756 88° East 457 526 39,000  Level Albuquerque Center
03:15PM 35.3136 -101.4192 88° East 458 527 39,000  Level Albuquerque Center
03:16PM 35.3158 -101.2739 89° East 459 528 39,000  Level Albuquerque Center
03:17PM 35.3192 -101.1186 88° East 458 527 39,000  Level Albuquerque Center
03:18PM 35.3244 -100.9308 88° East 460 529 39,000  Level Albuquerque Center
03:19PM 35.3286 -100.7731 88° East 463 533 39,000  Level Albuquerque Center
03:20PM 35.3319 -100.6336 88° East 465 535 39,000  Level Albuquerque Center
03:21PM 35.3356 -100.4433 89° East 465 535 39,000  Level Albuquerque Center
03:22PM 35.3378 -100.2861 89° East 464 534 39,000  Level Albuquerque Center
03:23PM 35.3411 -100.1283 88° East 463 533 39,000  Level Albuquerque Center
03:24PM 35.3433 -99.9717 89° East 462 532 39,000  Level Albuquerque Center
03:25PM 35.3458 -99.8161 89° East 459 528 39,000  Level Albuquerque Center
03:26PM 35.3478 -99.6603 89° East 459 528 39,000  Level Albuquerque Center
03:27PM 35.3494 -99.5053 89° East 458 527 39,000  Level Albuquerque Center
03:29PM 35.3531 -99.3206 89° East 455 524 39,000  Level Albuquerque Center
03:29PM 35.3508 -99.2614 93° East 456 525 39,000  Level Fort Worth Center
03:30PM 35.3531 -99.1061 89° East 462 532 39,000  Level Fort Worth Center
03:31PM 35.3550 -98.9458 89° East 456 525 39,000  Level Fort Worth Center
03:32PM 35.3569 -98.7906 89° East 456 525 39,000  Level Fort Worth Center
03:33PM 35.3586 -98.6328 89° East 456 525 39,000  Level Fort Worth Center
03:34PM 35.3578 -98.4828 90° East 456 525 39,000  Level Fort Worth Center
03:35PM 35.3592 -98.3247 89° East 451 519 39,000  Level Fort Worth Center
03:36PM 35.3600 -98.1694 90° East 451 519 39,000  Level Fort Worth Center
03:37PM 35.3589 -98.0092 90° East 456 525 39,000  Level Fort Worth Center
03:38PM 35.3575 -97.8539 91° East 456 525 39,000  Level Fort Worth Center
03:39PM 35.3581 -97.6911 90° East 456 525 39,000  Level Fort Worth Center
03:40PM 35.3561 -97.5408 91° East 456 525 39,000  Level Fort Worth Center
03:41PM 35.3667 -97.3753 85° East 462 532 39,000  Level Fort Worth Center
03:42PM 35.3686 -97.2175 89° East 457 526 39,000  Level Fort Worth Center
03:43PM 35.3661 -97.0750 91° East 457 526 39,000  Level Fort Worth Center
03:44PM 35.3697 -96.9222 88° East 457 526 39,000  Level Fort Worth Center
03:45PM 35.3733 -96.7644 88° East 457 526 39,000  Level Fort Worth Center
03:46PM 35.3744 -96.6014 89° East 457 526 39,000  Level Fort Worth Center
03:47PM 35.3753 -96.4461 90° East 457 526 39,000  Level Fort Worth Center
03:48PM 35.3783 -96.2856 89° East 457 526 39,000  Level Fort Worth Center
03:49PM 35.3808 -96.1278 89° East 457 526 39,000  Level Fort Worth Center
03:50PM 35.3811 -95.9675 90° East 457 526 39,000  Level Fort Worth Center
03:51PM 35.3875 -95.7967 87° East 457 526 39,000  Level Fort Worth Center
03:52PM 35.3875 -95.6336 90° East 457 526 39,000  Level Fort Worth Center
03:53PM 35.3892 -95.4758 89° East 462 532 39,000  Level Fort Worth Center
03:54PM 35.3889 -95.2544 90° East 455 524 39,000  Level Memphis Center
03:55PM 35.3889 -95.0942 90° East 461 531 39,000  Level Memphis Center
03:56PM 35.3886 -94.9336 90° East 467 537 39,000  Level Memphis Center
03:57PM 35.3883 -94.7681 90° East 474 545 39,000  Level Memphis Center
03:58PM 35.3878 -94.6050 90° East 480 552 39,000  Level Memphis Center
03:59PM 35.3847 -94.4419 91° East 480 552 39,000  Level Memphis Center
04:00PM 35.3875 -94.2917 89° East 480 552 39,000  Level Memphis Center
04:01PM 35.3781 -94.1283 94° East 480 552 39,000  Level Memphis Center
04:02PM 35.3642 -93.9622 96° East 480 552 39,000  Level Memphis Center
04:03PM 35.3522 -93.7964 95° East 480 552 39,000  Level Memphis Center
04:04PM 35.3419 -93.6331 94° East 485 558 39,000  Level Memphis Center
04:05PM 35.3297 -93.4619 95° East 490 564 39,000  Level Memphis Center
04:06PM 35.3192 -93.2986 94° East 490 564 39,000  Level Memphis Center
04:07PM 35.3042 -93.1303 96° East 484 557 39,000  Level Memphis Center
04:08PM 35.2911 -92.9644 95° East 484 557 39,000  Level Memphis Center
04:09PM 35.2775 -92.8039 96° East 484 557 39,000  Level Memphis Center
04:10PM 35.2622 -92.6178 96° East 490 564 39,000  Level Memphis Center
04:11PM 35.2486 -92.4494 96° East 490 564 39,000  Level Memphis Center
04:12PM 35.2325 -92.2839 97° East 490 564 39,000  Level Memphis Center
04:13PM 35.2203 -92.1186 95° East 490 564 39,000  Level Memphis Center
04:14PM 35.2036 -91.9531 97° East 490 564 39,000  Level Memphis Center
04:15PM 35.1892 -91.7875 96° East 490 564 39,000  Level Memphis Center
04:16PM 35.1742 -91.6169 96° East 490 564 39,000  Level Memphis Center
04:17PM 35.1611 -91.4492 95° East 490 564 39,000  Level Memphis Center
04:18PM 35.1458 -91.2864 97° East 490 564 39,000  Level Memphis Center
04:19PM 35.1303 -91.1189 96° East 490 564 39,000  Level Memphis Center
04:20PM 35.1144 -90.9461 96° East 496 571 39,000  Level Memphis Center
04:21PM 35.0983 -90.7808 97° East 496 571 39,000  Level Memphis Center
04:22PM 35.0842 -90.6311 97° East 503 579 39,000  Level Memphis Center
04:23PM 35.0658 -90.4611 97° East 503 579 39,000  Level Memphis Center
04:24PM 35.0492 -90.2936 97° East 503 579 39,000  Level Memphis Center
04:25PM 35.0322 -90.1236 97° East 503 579 39,000  Level Memphis Center
04:26PM 35.0150 -89.9564 97° East 503 579 39,000  Level Memphis Center
04:27PM 34.9914 -89.7689 99° East 503 579 39,000  Level Memphis Center
04:28PM 34.9633 -89.5919 101° East 520 598 39,000  Level Memphis Center
04:29PM 34.9350 -89.4225 101° East 515 593 39,000 -300 Level Memphis Center
04:30PM 34.9086 -89.2556 101° East 505 581 38,400 -720 Descending Memphis Center
04:31PM 34.8842 -89.1064 101° East 505 581 37,600 -720 Descending Memphis Center
04:32PM 34.8594 -88.9372 100° East 505 581 37,000 -300 Descending Memphis Center
04:33PM 34.8322 -88.7708 101° East 500 575 37,000  Level Memphis Center
04:34PM 34.8072 -88.6069 100° East 500 575 37,000 -540 Level Memphis Center
04:35PM 34.7819 -88.4506 101° East 485 558 36,000 -960 Descending Memphis Center
04:36PM 34.7583 -88.2894 100° East 479 551 35,100 -960 Descending Memphis Center
04:37PM 34.7261 -88.1031 102° East 502 578 34,100 -1,020 Descending Memphis Center
04:38PM 34.7000 -87.9347 101° East 507 583 33,100 -600 Descending Memphis Center
04:39PM 34.6736 -87.7711 101° East 500 575 33,000 -60 Descending Memphis Center
04:40PM 34.6472 -87.6081 101° East 500 575 33,000 -780 Level Memphis Center
04:42PM 34.6056 -87.3472 101° East 493 567 31,000 -1,500 Descending Atlanta Center
04:43PM 34.5719 -87.1894 104° East 487 560 29,100 -1,020 Descending Atlanta Center
04:44PM 34.5425 -87.0322 103° East 482 555 29,000 -60 Descending Atlanta Center
04:45PM 34.5128 -86.8822 103° East 471 542 29,000  Level Atlanta Center
04:46PM 34.4850 -86.7303 102° East 465 535 29,000 -60 Level Atlanta Center
04:47PM 34.4547 -86.5756 103° East 465 535 28,900 -600 Descending Atlanta Center
04:48PM 34.4244 -86.4236 104° East 465 535 27,900 -1,080 Descending Atlanta Center
04:49PM 34.3961 -86.2717 103° East 465 535 26,800 -1,080 Descending Atlanta Center
04:50PM 34.3672 -86.1250 103° East 454 522 25,800 -1,020 Descending Atlanta Center
04:51PM 34.3383 -85.9808 104° East 454 522 24,800 -1,020 Descending Atlanta Center
04:52PM 34.3092 -85.8319 103° East 454 522 23,800 -1,080 Descending Atlanta Center
04:53PM 34.2819 -85.6981 104° East 429 494 22,700 -960 Descending Atlanta Center
04:54PM 34.2564 -85.5744 104° East 423 487 21,900 -900 Descending Atlanta Center
04:55PM 34.2289 -85.4358 103° East 416 479 20,900 -1,500 Descending Atlanta Center
04:56PM 34.2031 -85.3072 104° East 410 472 19,000 -1,860 Descending Atlanta Center
04:57PM 34.1750 -85.1814 105° East 391 450 17,200 -2,040 Descending Atlanta Center
04:58PM 34.1239 -85.0725 120° Southeast 385 443 15,000 -1,620 Descending Atlanta Center
04:59PM 34.0578 -84.9842 132° Southeast 368 423 14,000 -900 Descending Atlanta Center
05:00PM 33.9875 -84.8956 134° Southeast 356 410 13,300 -1,020 Descending Atlanta Center
05:01PM 33.9131 -84.8022 134° Southeast 356 410 12,000 -660 Descending Atlanta Center
05:02PM 33.8500 -84.7167 132° Southeast 340 391 12,000 -120 Level Atlanta TRACON
05:04PM 33.7408 -84.5783 133° Southeast 299 344 11,800 -660 Descending Atlanta Center
05:05PM 33.7333 -84.4833 95° East 273 314 10,100 -1,980 Descending Atlanta TRACON
05:06PM 33.7333 -84.3833 90° East 264 304 7,900 -1,860 Descending Atlanta TRACON
05:07PM 33.7333 -84.3167 90° East 214 246 6,300 -1,680 Descending Atlanta TRACON
05:08PM 33.7000 -84.2667 129° Southeast 199 229 4,600 -1,620 Descending Atlanta TRACON
05:09PM 33.6667 -84.2833 203° Southwest 179 206 3,100 -1,260 Descending Atlanta TRACON
05:10PM 33.6500 -84.3333 248° West 153 176 2,300 -840 Descending Atlanta TRACON
05:11PM 33.6500 -84.3833 270° West 133 153 1,500 -780 Descending Atlanta TRACON
05:13PM 33.6333 -84.4167 North  Level FlightAware Approximate
05:20PM 33.6367 -84.4279 North  Level Estimated